NCAR-RAP Real-Time Weather Data

Output produced by METARs form (10 April 2020  06:08 UTC)
found at http://weather.rap.ucar.edu/surface/
 
KABR 100553Z AUTO 00000KT 10SM CLR M04/M06 A3016 RMK AO2 SLP230 T10441061 10044 21050 400501050 58012
KABR 100453Z AUTO 23003KT 10SM CLR M04/M06 A3018 RMK AO2 SLP237 T10441061
KABR 100353Z AUTO 25005KT 10SM CLR M04/M07 A3019 RMK AO2 SLP241 T10391072
KABR 100253Z AUTO 27004KT 8SM CLR M02/M06 A3020 RMK AO2 SLP243 T10221061 53006
KABR 100153Z AUTO 28004KT 10SM CLR 00/M07 A3019 RMK AO2 SLP238 T00001067
KABR 100053Z AUTO 35006KT 10SM CLR 03/M08 A3018 RMK AO2 SLP233 T00281078
KABR 092353Z AUTO 35011KT 10SM CLR 04/M07 A3018 RMK AO2 SLP233 T00441067 10050 20006 58006
KABR 092253Z AUTO 01013KT 10SM BKN041 05/M06 A3019 RMK AO2 SLP237 T00501061
KABR 092153Z AUTO 36013G25KT 10SM BKN040 04/M07 A3019 RMK AO2 PK WND 36028/2114 SLP235 T00391067
KABR 092053Z AUTO 35017G26KT 10SM BKN046 04/M08 A3020 RMK AO2 PK WND 35030/2007 SLP238 T00441083 58001
KABR 091953Z AUTO 35018G30KT 10SM BKN047 04/M09 A3020 RMK AO2 PK WND 33035/1935 SLP240 T00391089
KABR 091853Z AUTO 34022G31KT 10SM BKN045 02/M09 A3020 RMK AO2 PK WND 33033/1810 SLP240 T00221089
KABR 091753Z AUTO 34019G32KT 10SM BKN034 01/M07 A3020 RMK AO2 PK WND 33033/1702 SLP240 60001 T00061072 10011 21028 51029
KABR 091653Z AUTO 33021G34KT 10SM OVC033 M01/M07 A3018 RMK AO2 PK WND 33038/1556 SLP235 T10111072
KABR 091638Z AUTO 34023G35KT 10SM BKN030 OVC035 M01/M07 A3017 RMK AO2 PK WND 33038/1556 T10111072
KABR 091553Z AUTO 33027G37KT 10SM BKN028 OVC036 M02/M07 A3014 RMK AO2 PK WND 34039/1525 SLP221 T10171072
KABR 091522Z AUTO 33029G38KT 10SM BKN029 M02/M07 A3012 RMK AO2 PK WND 33038/1522 T10171072
KABR 091453Z AUTO 33025G33KT 10SM SCT070 M02/M08 A3011 RMK AO2 PK WND 33037/1359 UPB26E32SNE26 SLP210 P0001 60001 T10171083 53026
KABR 091437Z AUTO 33026G35KT 10SM SCT021 SCT060 BKN070 M02/M07 A3009 RMK AO2 PK WND 33037/1359 UPB26E32SNE26 P0001 T10221072
KABR 091430Z AUTO 33022G33KT 9SM UP BKN017 BKN026 OVC070 M02/M07 A3010 RMK AO2 PK WND 33037/1359 UPB26SNE26 P0001 T10221067
KABR 091423Z AUTO 33018G30KT 2SM -SN BKN015 BKN055 OVC070 M02/M06 A3009 RMK AO2 PK WND 33037/1359 P0000 T10221056
KABR 091421Z AUTO 33020G30KT 3/4SM -SN BKN015 OVC055 M02/M06 A3009 RMK AO2 PK WND 33037/1359 P0000 T10221056
KABR 091410Z AUTO 33018G37KT 1/4SM +SN FZFG BKN010 OVC044 M03/M05 A3009 RMK AO2 PK WND 33037/1359 P0000 T10281050
KABR 091359Z AUTO 32028G37KT 1/4SM +SN BKN021 BKN035 OVC047 M02/M05 A3008 RMK AO2 PK WND 33037/1359 P0000 T10221050
KABR 091356Z AUTO 33024G33KT 1SM -SN BKN025 BKN037 OVC085 M01/M06 A3008 RMK AO2 PK WND 33033/1356 P0000 T10111056
KABR 091353Z AUTO 34019G26KT 7SM -SN BKN033 BKN043 OVC085 M01/M07 A3008 RMK AO2 PK WND 30030/1326 SNB40 SLP199 P0000 T10061067
KABR 091253Z AUTO 31012G21KT 10SM CLR M01/M08 A3005 RMK AO2 SLP188 T10061078
KABR 091153Z AUTO 32018G23KT 10SM SCT035 BKN070 BKN085 M01/M06 A3003 RMK AO2 SLP179 7//// T10111056 10017 21022 53018
KABR 091053Z AUTO 31012KT 10SM BKN080 M01/M06 A3001 RMK AO2 SLP171 T10061061
KABR 090953Z AUTO 29012KT 10SM FEW070 00/M06 A2998 RMK AO2 SLP163 T00001061
KABR 090853Z AUTO 29013G20KT 10SM CLR 00/M06 A2997 RMK AO2 SLP159 T00001056 56005
KABR 090753Z AUTO 29012KT 10SM CLR 01/M06 A2998 RMK AO2 SLP161 T00061056